createdAt,value
2022-12-20T00:00:52.055Z,2.55
2022-12-20T00:03:20.589Z,2.53
2022-12-20T00:05:48.312Z,2.51
2022-12-20T00:08:15.437Z,2.52
2022-12-20T00:10:44.295Z,2.54
2022-12-20T00:13:12.827Z,2.57
2022-12-20T00:15:39.523Z,2.57
2022-12-20T00:18:06.391Z,2.56
2022-12-20T00:20:33.830Z,2.59
2022-12-20T00:23:00.762Z,2.59
2022-12-20T00:25:27.576Z,2.60
2022-12-20T00:27:54.656Z,2.63
2022-12-20T00:30:40.161Z,2.62
2022-12-20T00:33:25.461Z,2.66
2022-12-20T00:35:52.239Z,2.70
2022-12-20T00:38:18.943Z,2.72
2022-12-20T00:40:45.717Z,2.74
2022-12-20T00:43:12.921Z,2.75
2022-12-20T00:45:39.647Z,2.70
2022-12-20T00:48:06.423Z,2.69
2022-12-20T00:50:33.085Z,2.76
2022-12-20T00:52:59.848Z,2.76
2022-12-20T00:55:26.628Z,2.71
2022-12-20T00:57:53.304Z,2.68
2022-12-20T01:00:20.765Z,2.69
2022-12-20T01:02:47.583Z,2.73
2022-12-20T01:05:14.452Z,2.78
2022-12-20T01:07:41.613Z,2.81
2022-12-20T01:10:08.995Z,2.84
2022-12-20T01:12:35.680Z,2.85
2022-12-20T01:15:02.855Z,2.81
2022-12-20T01:17:29.701Z,2.75
2022-12-20T01:19:56.410Z,2.75
2022-12-20T01:22:23.141Z,2.76
2022-12-20T01:24:49.893Z,2.77
2022-12-20T01:27:16.660Z,2.81
2022-12-20T01:29:43.357Z,2.83
2022-12-20T01:32:10.192Z,2.86
2022-12-20T01:34:37.237Z,2.85
2022-12-20T01:37:04.046Z,2.86
2022-12-20T01:39:30.743Z,2.89
2022-12-20T01:41:57.592Z,2.86
2022-12-20T01:44:24.300Z,2.85
2022-12-20T01:46:52.246Z,2.89
2022-12-20T01:49:36.171Z,2.91
2022-12-20T01:52:26.093Z,2.92
2022-12-20T01:54:55.774Z,2.92
2022-12-20T01:57:29.435Z,2.93
2022-12-20T01:59:57.420Z,2.94
2022-12-20T02:02:24.771Z,2.93
2022-12-20T02:04:51.599Z,2.91
2022-12-20T02:07:24.500Z,2.92
2022-12-20T02:09:54.342Z,2.96
2022-12-20T02:12:24.478Z,2.98
2022-12-20T02:15:16.357Z,3.01
2022-12-20T02:18:39.089Z,3.01
2022-12-20T02:21:17.852Z,3.00
2022-12-20T02:24:09.491Z,3.00
2022-12-20T02:26:51.501Z,3.03
2022-12-20T02:29:35.349Z,3.04
2022-12-20T02:32:20.515Z,3.10
2022-12-20T02:34:50.631Z,3.11
2022-12-20T02:37:17.375Z,3.11
2022-12-20T02:39:46.302Z,3.11
2022-12-20T02:42:15.305Z,3.17
2022-12-20T02:45:05.275Z,3.41
2022-12-20T02:47:47.979Z,3.52
2022-12-20T02:50:18.719Z,3.58
2022-12-20T02:52:46.259Z,3.50
2022-12-20T02:55:13.104Z,3.42
2022-12-20T02:57:57.879Z,3.34
2022-12-20T03:00:33.204Z,3.39
2022-12-20T03:03:19.858Z,3.48
2022-12-20T03:05:48.775Z,3.50
2022-12-20T03:08:16.040Z,3.45
2022-12-20T03:10:42.963Z,3.41
2022-12-20T03:13:09.916Z,3.41
2022-12-20T03:15:36.679Z,3.43
2022-12-20T03:18:03.599Z,3.42
2022-12-20T03:20:30.432Z,3.41
2022-12-20T03:22:57.143Z,3.36
2022-12-20T03:25:23.993Z,3.33
2022-12-20T03:27:50.680Z,3.32
2022-12-20T03:30:17.498Z,3.31
2022-12-20T03:32:44.320Z,3.29
2022-12-20T03:35:11.064Z,3.27
2022-12-20T03:37:37.930Z,3.25
2022-12-20T03:40:05.608Z,3.23
2022-12-20T03:42:32.629Z,3.21
2022-12-20T03:44:59.852Z,3.20
2022-12-20T03:47:26.577Z,3.16
2022-12-20T03:49:53.384Z,3.14
2022-12-20T03:52:20.154Z,3.12
2022-12-20T03:54:46.891Z,3.11
2022-12-20T03:57:13.688Z,3.08
2022-12-20T03:59:40.480Z,3.09
2022-12-20T04:02:07.375Z,3.10
2022-12-20T04:04:34.211Z,3.11
2022-12-20T04:07:00.954Z,3.12
2022-12-20T04:09:27.828Z,3.12
2022-12-20T04:11:54.720Z,3.09
2022-12-20T04:14:21.488Z,3.05
2022-12-20T04:16:48.271Z,3.06
2022-12-20T04:19:15.103Z,3.06
2022-12-20T04:21:41.863Z,3.05
2022-12-20T04:24:08.680Z,3.05
2022-12-20T04:26:35.326Z,3.06
2022-12-20T04:29:02.152Z,3.06
2022-12-20T04:31:28.965Z,3.07
2022-12-20T04:33:55.754Z,3.08
2022-12-20T04:36:22.820Z,3.11
2022-12-20T04:38:49.608Z,3.11
2022-12-20T04:41:27.044Z,3.11
2022-12-20T04:43:56.143Z,3.09
2022-12-20T04:46:24.134Z,3.10
2022-12-20T04:48:59.753Z,3.10
2022-12-20T04:51:28.114Z,3.06
2022-12-20T04:53:55.350Z,3.04
2022-12-20T04:56:25.571Z,3.05
2022-12-20T04:58:54.479Z,3.05
2022-12-20T05:01:22.139Z,3.07
2022-12-20T05:03:49.639Z,3.06
2022-12-20T05:06:16.829Z,3.06
2022-12-20T05:08:43.558Z,3.10
2022-12-20T05:11:10.825Z,3.13
2022-12-20T05:13:37.545Z,3.15
2022-12-20T05:16:04.620Z,3.16
2022-12-20T05:18:32.199Z,3.16
2022-12-20T05:21:19.311Z,3.16
2022-12-20T05:24:04.634Z,3.15
2022-12-20T05:26:36.360Z,3.16
2022-12-20T05:29:03.883Z,3.15
2022-12-20T05:31:31.723Z,3.15
2022-12-20T05:33:58.589Z,3.14
2022-12-20T05:36:27.070Z,3.13
2022-12-20T05:38:58.200Z,3.13
2022-12-20T05:41:30.415Z,3.15
2022-12-20T05:43:57.464Z,3.17
2022-12-20T05:46:24.269Z,3.17
2022-12-20T05:48:51.082Z,3.19
2022-12-20T05:51:17.809Z,3.18
2022-12-20T05:53:44.754Z,3.18
2022-12-20T05:56:11.514Z,3.19
2022-12-20T05:58:38.293Z,3.21
2022-12-20T06:01:07.348Z,3.24
2022-12-20T06:03:34.401Z,3.22
2022-12-20T06:06:01.392Z,3.23
2022-12-20T06:08:28.229Z,3.23
2022-12-20T06:10:55.152Z,3.19
2022-12-20T06:13:22.086Z,3.16
2022-12-20T06:15:48.859Z,3.15
2022-12-20T06:18:15.560Z,3.14
2022-12-20T06:20:42.521Z,3.16
2022-12-20T06:23:09.743Z,3.14
2022-12-20T06:25:38.105Z,3.12
2022-12-20T06:28:05.765Z,3.12
2022-12-20T06:30:34.262Z,3.15
2022-12-20T06:33:02.086Z,3.17
2022-12-20T06:35:29.790Z,3.19
2022-12-20T06:37:57.290Z,3.18
2022-12-20T06:40:26.684Z,3.18
2022-12-20T06:42:53.436Z,3.21
2022-12-20T06:45:20.173Z,3.22
2022-12-20T06:47:46.902Z,3.20
2022-12-20T06:50:13.612Z,3.15
2022-12-20T06:52:40.315Z,3.17
2022-12-20T06:55:07.402Z,3.19
2022-12-20T06:57:34.138Z,3.21
2022-12-20T07:00:00.891Z,3.24
2022-12-20T07:02:28.242Z,3.24
2022-12-20T07:04:55.260Z,3.24
2022-12-20T07:07:22.444Z,3.25
2022-12-20T07:09:49.244Z,3.26
2022-12-20T07:12:15.982Z,3.27
2022-12-20T07:14:42.781Z,3.25
2022-12-20T07:17:10.728Z,3.25
2022-12-20T07:19:37.692Z,3.24
2022-12-20T07:22:05.543Z,3.26
2022-12-20T07:24:33.448Z,3.30
2022-12-20T07:27:01.613Z,3.31
2022-12-20T07:29:28.869Z,3.31
2022-12-20T07:31:55.943Z,3.33
2022-12-20T07:34:23.022Z,3.34
2022-12-20T07:36:50.335Z,3.38
2022-12-20T07:39:17.079Z,3.40
2022-12-20T07:41:43.902Z,3.39
2022-12-20T07:44:10.561Z,3.39
2022-12-20T07:46:37.503Z,3.42
2022-12-20T07:49:05.707Z,3.44
2022-12-20T07:51:40.018Z,3.46
2022-12-20T07:54:12.253Z,3.49
2022-12-20T07:56:45.955Z,3.47
2022-12-20T07:59:16.125Z,3.48
2022-12-20T08:01:45.460Z,3.52
2022-12-20T08:04:21.176Z,3.53
2022-12-20T08:06:49.481Z,3.54
2022-12-20T08:09:16.771Z,3.56
2022-12-20T08:11:47.038Z,3.57
2022-12-20T08:14:14.455Z,3.61
2022-12-20T08:16:41.621Z,3.63
2022-12-20T08:19:08.440Z,3.66
2022-12-20T08:21:35.096Z,3.67
2022-12-20T08:24:01.788Z,3.71
2022-12-20T08:26:28.504Z,3.71
2022-12-20T08:28:56.023Z,3.74
2022-12-20T08:31:22.955Z,3.74
2022-12-20T08:33:49.786Z,3.76
2022-12-20T08:36:16.499Z,3.77
2022-12-20T08:38:43.289Z,3.78
2022-12-20T08:41:12.785Z,3.79
2022-12-20T08:43:41.278Z,3.77
2022-12-20T08:46:12.433Z,3.78
2022-12-20T08:48:40.121Z,3.80
2022-12-20T08:51:09.350Z,3.83
2022-12-20T08:53:36.762Z,3.86
2022-12-20T08:56:09.916Z,3.87
2022-12-20T08:58:37.664Z,3.91
2022-12-20T09:01:07.435Z,3.93
2022-12-20T09:03:35.661Z,3.97
2022-12-20T09:06:06.652Z,4.01
2022-12-20T09:08:38.029Z,4.06
2022-12-20T09:11:22.744Z,4.11
2022-12-20T09:13:52.089Z,4.18
2022-12-20T09:16:21.750Z,4.22
2022-12-20T09:18:53.132Z,4.24
2022-12-20T09:21:20.324Z,4.25
2022-12-20T09:23:49.999Z,4.26
2022-12-20T09:26:18.028Z,4.27
2022-12-20T09:28:45.067Z,4.31
2022-12-20T09:31:14.707Z,4.36
2022-12-20T09:33:42.633Z,4.41
2022-12-20T09:36:14.675Z,4.45
2022-12-20T09:38:41.741Z,4.46
2022-12-20T09:41:22.427Z,4.44
2022-12-20T09:43:49.969Z,4.43
2022-12-20T09:46:17.192Z,4.45
2022-12-20T09:48:45.088Z,4.48
2022-12-20T09:51:33.735Z,4.47
2022-12-20T09:54:22.184Z,4.49
2022-12-20T09:57:02.977Z,4.51
2022-12-20T09:59:33.001Z,4.55
2022-12-20T10:02:35.449Z,4.59
2022-12-20T10:04:57.042Z,4.67
2022-12-20T10:07:42.993Z,4.75
2022-12-20T10:10:33.180Z,4.78
2022-12-20T10:13:24.922Z,4.81
2022-12-20T10:16:04.940Z,4.87
2022-12-20T10:18:49.992Z,4.89
2022-12-20T10:21:26.904Z,4.89
2022-12-20T10:24:12.045Z,4.92
2022-12-20T10:26:38.940Z,4.97
2022-12-20T10:29:05.692Z,5.12
2022-12-20T10:31:32.474Z,5.18
2022-12-20T10:33:59.281Z,5.15
2022-12-20T10:36:28.065Z,5.15
2022-12-20T10:38:57.950Z,5.14
2022-12-20T10:41:40.748Z,5.17
2022-12-20T10:44:14.835Z,5.19
2022-12-20T10:46:45.594Z,5.21
2022-12-20T10:49:26.735Z,5.21
2022-12-20T10:51:57.561Z,5.22
2022-12-20T10:54:37.867Z,5.22
2022-12-20T10:57:24.758Z,5.27
2022-12-20T10:59:54.735Z,5.26
2022-12-20T11:02:40.208Z,5.26
2022-12-20T11:05:11.475Z,5.26
2022-12-20T11:08:24.651Z,5.29
2022-12-20T11:10:38.637Z,5.28
2022-12-20T11:13:06.484Z,5.31
2022-12-20T11:15:35.791Z,5.41
2022-12-20T11:18:09.320Z,5.52
2022-12-20T11:21:04.105Z,5.46
2022-12-20T11:24:14.325Z,5.40
2022-12-20T11:26:47.071Z,5.38
2022-12-20T11:29:23.295Z,5.40
2022-12-20T11:32:08.902Z,5.40
2022-12-20T11:35:03.596Z,5.46
2022-12-20T11:38:09.019Z,5.48
2022-12-20T11:40:51.467Z,5.52
2022-12-20T11:44:15.793Z,5.52
2022-12-20T11:46:53.179Z,5.51
2022-12-20T11:49:51.003Z,5.49
2022-12-20T11:52:26.717Z,5.48
2022-12-20T11:55:07.314Z,5.53
2022-12-20T11:58:18.567Z,5.61
2022-12-20T12:00:58.151Z,5.66
2022-12-20T12:03:41.499Z,5.66
2022-12-20T12:06:34.673Z,5.65
2022-12-20T12:09:21.008Z,5.63
2022-12-20T12:12:09.485Z,5.72
2022-12-20T12:14:53.208Z,5.73
2022-12-20T12:17:35.330Z,5.65
2022-12-20T12:20:20.370Z,5.74
2022-12-20T12:22:51.303Z,5.91
2022-12-20T12:25:19.025Z,6.12
2022-12-20T12:27:46.172Z,6.26
2022-12-20T12:30:16.890Z,6.29
2022-12-20T12:33:03.569Z,6.33
2022-12-20T12:35:54.483Z,6.37
2022-12-20T12:38:36.666Z,6.40
2022-12-20T12:41:24.382Z,6.46
2022-12-20T12:43:56.220Z,6.53
2022-12-20T12:46:35.007Z,6.52
2022-12-20T12:49:23.871Z,6.49
2022-12-20T12:51:54.196Z,6.43
2022-12-20T12:54:39.903Z,6.39
2022-12-20T12:57:15.615Z,6.38
2022-12-20T12:59:48.811Z,6.42
2022-12-20T13:02:16.388Z,6.46
2022-12-20T13:05:09.085Z,6.49
2022-12-20T13:07:36.478Z,6.52
2022-12-20T13:10:29.595Z,6.54
2022-12-20T13:13:01.021Z,6.52
2022-12-20T13:15:28.434Z,6.52
2022-12-20T13:18:21.721Z,6.55
2022-12-20T13:21:18.591Z,6.65
2022-12-20T13:23:45.516Z,6.67
2022-12-20T13:26:49.921Z,6.73
2022-12-20T13:29:36.045Z,6.80
2022-12-20T13:32:23.208Z,6.75
2022-12-20T13:34:57.385Z,6.70
2022-12-20T13:37:29.358Z,6.65
2022-12-20T13:39:56.448Z,6.64
2022-12-20T13:42:40.268Z,6.64
2022-12-20T13:45:13.530Z,6.64
2022-12-20T13:47:49.779Z,6.60
2022-12-20T13:50:47.307Z,6.55
2022-12-20T13:53:20.021Z,6.51
2022-12-20T13:55:46.947Z,6.51
2022-12-20T13:58:24.860Z,6.58
2022-12-20T14:00:53.390Z,6.63
2022-12-20T14:03:23.850Z,6.67
2022-12-20T14:05:57.052Z,6.65
2022-12-20T14:08:28.216Z,6.67
2022-12-20T14:10:55.043Z,6.68
2022-12-20T14:13:26.774Z,6.71
2022-12-20T14:15:54.359Z,6.71
2022-12-20T14:18:26.005Z,6.70
2022-12-20T14:21:04.991Z,6.73
2022-12-20T14:23:39.660Z,6.73
2022-12-20T14:26:12.816Z,6.71
2022-12-20T14:28:48.686Z,6.70
2022-12-20T14:31:41.403Z,6.67
2022-12-20T14:34:11.120Z,6.65
2022-12-20T14:36:42.493Z,6.63
2022-12-20T14:39:33.556Z,6.61
2022-12-20T14:42:03.036Z,6.55
2022-12-20T14:44:31.906Z,6.57
2022-12-20T14:47:01.208Z,6.56
2022-12-20T14:49:30.491Z,6.57
2022-12-20T14:52:15.660Z,6.54
2022-12-20T14:55:10.960Z,6.46
2022-12-20T14:57:38.019Z,6.45
2022-12-20T15:00:30.550Z,6.41
2022-12-20T15:03:00.892Z,6.40
2022-12-20T15:05:35.298Z,6.49
2022-12-20T15:08:28.868Z,6.50
2022-12-20T15:11:17.848Z,6.44
2022-12-20T15:13:54.307Z,6.40
2022-12-20T15:16:24.025Z,6.38
2022-12-20T15:18:54.731Z,6.40
2022-12-20T15:21:30.521Z,6.39
2022-12-20T15:23:59.863Z,6.39
2022-12-20T15:26:27.346Z,6.39
2022-12-20T15:28:54.817Z,6.41
2022-12-20T15:31:32.450Z,6.39
2022-12-20T15:34:03.589Z,6.33
2022-12-20T15:36:30.822Z,6.31
2022-12-20T15:39:14.907Z,6.30
2022-12-20T15:41:46.073Z,6.24
2022-12-20T15:44:15.337Z,6.20
2022-12-20T15:46:42.805Z,6.19
2022-12-20T15:49:18.274Z,6.23
2022-12-20T15:51:47.570Z,6.20
2022-12-20T15:54:27.163Z,6.22
2022-12-20T15:56:59.141Z,6.18
2022-12-20T15:59:58.843Z,6.16
2022-12-20T16:02:28.530Z,6.27
2022-12-20T16:04:55.877Z,6.26
2022-12-20T16:07:23.525Z,6.25
2022-12-20T16:09:50.453Z,6.34
2022-12-20T16:12:25.404Z,6.42
2022-12-20T16:14:52.159Z,6.54
2022-12-20T16:17:18.876Z,6.55
2022-12-20T16:19:46.160Z,6.43
2022-12-20T16:22:18.359Z,6.32
2022-12-20T16:24:45.979Z,6.32
2022-12-20T16:27:12.730Z,6.37
2022-12-20T16:29:41.269Z,6.40
2022-12-20T16:32:16.267Z,6.34
2022-12-20T16:34:43.452Z,6.22
2022-12-20T16:37:11.720Z,6.12
2022-12-20T16:39:38.475Z,6.08
2022-12-20T16:42:14.495Z,6.02
2022-12-20T16:44:44.291Z,5.98
2022-12-20T16:47:11.387Z,5.94
2022-12-20T16:49:38.235Z,5.90
2022-12-20T16:52:06.692Z,5.86
2022-12-20T16:54:33.489Z,5.86
2022-12-20T16:57:00.336Z,5.84
2022-12-20T16:59:27.070Z,5.83
2022-12-20T17:01:56.726Z,5.84
2022-12-20T17:04:24.160Z,5.84
2022-12-20T17:06:51.152Z,5.83
2022-12-20T17:09:19.301Z,5.80
2022-12-20T17:11:46.302Z,5.81
2022-12-20T17:14:13.599Z,5.81
2022-12-20T17:16:41.054Z,5.78
2022-12-20T17:19:09.126Z,5.77
2022-12-20T17:24:27.849Z,5.77
2022-12-20T17:26:55.326Z,5.73
2022-12-20T17:29:22.103Z,5.74
2022-12-20T17:31:49.969Z,5.73
2022-12-20T17:34:19.632Z,5.71
2022-12-20T17:36:47.928Z,5.69
2022-12-20T17:39:14.956Z,5.70
2022-12-20T17:41:42.942Z,5.74
2022-12-20T17:44:20.648Z,5.71
2022-12-20T17:46:48.176Z,5.70
2022-12-20T17:49:15.937Z,5.69
2022-12-20T17:51:43.303Z,5.69
2022-12-20T17:54:18.220Z,5.70
2022-12-20T17:56:45.534Z,5.68
2022-12-20T17:59:13.738Z,5.66
2022-12-20T18:01:42.929Z,5.66
2022-12-20T18:04:15.576Z,5.65
2022-12-20T18:06:45.045Z,5.64
2022-12-20T18:09:14.475Z,5.63
2022-12-20T18:11:41.699Z,5.61
2022-12-20T18:14:08.829Z,5.61
2022-12-20T18:16:35.649Z,5.61
2022-12-20T18:19:02.952Z,5.61
2022-12-20T18:21:29.892Z,5.62
2022-12-20T18:23:57.272Z,5.62
2022-12-20T18:26:29.800Z,5.63
2022-12-20T18:28:59.152Z,5.61
2022-12-20T18:31:28.470Z,5.59
2022-12-20T18:33:58.437Z,5.60
2022-12-20T18:36:28.503Z,5.61
2022-12-20T18:38:57.782Z,5.63
2022-12-20T18:41:29.806Z,5.62
2022-12-20T18:44:01.159Z,5.64
2022-12-20T18:46:28.968Z,5.67
2022-12-20T18:48:58.303Z,5.65
2022-12-20T18:51:27.638Z,5.64
2022-12-20T18:53:56.631Z,5.62
2022-12-20T18:56:32.942Z,5.64
2022-12-20T18:59:08.189Z,5.65
2022-12-20T19:01:38.551Z,5.64
2022-12-20T19:04:07.336Z,5.69
2022-12-20T19:06:36.061Z,5.78
2022-12-20T19:09:05.826Z,5.71
2022-12-20T19:11:32.869Z,5.63
2022-12-20T19:13:59.779Z,5.57
2022-12-20T19:16:33.787Z,5.68
2022-12-20T19:19:02.084Z,5.77
2022-12-20T19:21:31.315Z,5.75
2022-12-20T19:23:59.976Z,5.65
2022-12-20T19:26:28.435Z,5.63
2022-12-20T19:28:56.464Z,5.61
2022-12-20T19:31:25.725Z,5.62
2022-12-20T19:33:57.050Z,5.65
2022-12-20T19:36:29.654Z,5.67
2022-12-20T19:38:58.902Z,5.68
2022-12-20T19:41:29.358Z,5.66
2022-12-20T19:43:57.142Z,5.63
2022-12-20T19:46:29.328Z,5.64
2022-12-20T19:48:57.835Z,5.62
2022-12-20T19:51:25.820Z,5.55
2022-12-20T19:53:53.858Z,5.53
2022-12-20T19:56:25.207Z,5.62
2022-12-20T19:58:53.632Z,5.65
2022-12-20T20:01:22.899Z,5.68
2022-12-20T20:03:49.958Z,5.75
2022-12-20T20:06:20.400Z,5.77
2022-12-20T20:08:49.562Z,5.76
2022-12-20T20:11:19.197Z,5.71
2022-12-20T20:13:46.053Z,5.70
2022-12-20T20:16:16.996Z,5.73
2022-12-20T20:18:49.065Z,5.73
2022-12-20T20:21:21.382Z,5.74
2022-12-20T20:23:53.071Z,5.68
2022-12-20T20:26:26.060Z,5.60
2022-12-20T20:28:53.541Z,5.56
2022-12-20T20:31:21.687Z,5.52
2022-12-20T20:33:48.956Z,5.51
2022-12-20T20:36:19.931Z,5.49
2022-12-20T20:38:46.888Z,5.49
2022-12-20T20:41:14.741Z,5.51
2022-12-20T20:43:42.373Z,5.59
2022-12-20T20:46:11.922Z,5.69
2022-12-20T20:48:39.349Z,5.70
2022-12-20T20:51:06.608Z,5.76
2022-12-20T20:53:34.523Z,5.77
2022-12-20T20:56:03.448Z,5.79
2022-12-20T20:58:30.619Z,5.99
2022-12-20T21:00:59.775Z,6.13
2022-12-20T21:03:28.089Z,6.20
2022-12-20T21:08:42.215Z,6.21
2022-12-20T21:11:09.864Z,6.21
2022-12-20T21:13:36.896Z,6.21
2022-12-20T21:16:09.362Z,6.24
2022-12-20T21:18:36.327Z,6.23
2022-12-20T21:21:11.674Z,6.22
2022-12-20T21:23:43.065Z,6.19
2022-12-20T21:26:09.905Z,6.16
2022-12-20T21:28:36.679Z,6.15
2022-12-20T21:31:09.572Z,6.16
2022-12-20T21:33:36.535Z,6.21
2022-12-20T21:36:08.180Z,6.25
2022-12-20T21:38:34.918Z,6.23
2022-12-20T21:41:02.522Z,6.27
2022-12-20T21:43:29.901Z,6.27
2022-12-20T21:45:57.457Z,6.25
2022-12-20T21:48:25.503Z,6.25
2022-12-20T21:51:11.228Z,6.23
2022-12-20T21:53:56.053Z,6.20
2022-12-20T21:56:24.777Z,6.21
2022-12-20T21:58:51.979Z,6.24
2022-12-20T22:01:24.999Z,6.24
2022-12-20T22:03:54.476Z,6.25
2022-12-20T22:06:21.706Z,6.23
2022-12-20T22:08:48.495Z,6.19
2022-12-20T22:11:18.120Z,6.14
2022-12-20T22:13:46.069Z,6.17
2022-12-20T22:16:15.246Z,6.21
2022-12-20T22:18:43.519Z,6.23
2022-12-20T22:21:13.148Z,6.22
2022-12-20T22:23:40.690Z,6.24
2022-12-20T22:26:15.036Z,6.20
2022-12-20T22:29:02.651Z,6.26
2022-12-20T22:31:29.595Z,6.34
2022-12-20T22:33:57.479Z,6.36
2022-12-20T22:36:25.550Z,6.39
2022-12-20T22:38:54.062Z,6.36
2022-12-20T22:41:28.829Z,6.30
2022-12-20T22:43:58.241Z,6.21
2022-12-20T22:46:25.604Z,6.14
2022-12-20T22:48:52.457Z,6.10
2022-12-20T22:51:21.826Z,6.09
2022-12-20T22:53:49.297Z,6.08
2022-12-20T22:56:18.630Z,6.11
2022-12-20T22:58:45.710Z,6.12
2022-12-20T23:01:15.064Z,6.13
2022-12-20T23:03:42.380Z,6.12
2022-12-20T23:06:12.852Z,6.13
2022-12-20T23:08:39.979Z,6.04
2022-12-20T23:11:34.041Z,5.97
2022-12-20T23:14:19.379Z,5.92
2022-12-20T23:16:46.157Z,5.85
2022-12-20T23:19:13.026Z,5.83
2022-12-20T23:21:58.595Z,5.78
2022-12-20T23:24:26.236Z,5.77
2022-12-20T23:26:52.955Z,5.76
2022-12-20T23:29:19.782Z,5.75
2022-12-20T23:31:46.641Z,5.75
2022-12-20T23:34:13.647Z,5.74
2022-12-20T23:36:40.881Z,5.76
2022-12-20T23:39:08.234Z,5.75
2022-12-20T23:41:35.030Z,5.77
2022-12-20T23:44:04.987Z,5.69
2022-12-20T23:46:32.092Z,5.62
2022-12-20T23:48:59.178Z,5.65
2022-12-20T23:51:25.896Z,5.67
2022-12-20T23:53:52.755Z,5.68
2022-12-20T23:56:21.841Z,5.70
2022-12-20T23:58:54.329Z,5.73
